Time;durP1;ratioP1;P1;durP2;ratioP2;P2;SDS_P1;SDS_P2;PMS_P1;PMS_P2;Temp;Humidity;BMP_temperature;BMP_pressure;BME280_temperature;BME280_humidity;BME280_pressure;Samples;Min_cycle;Max_cycle;Signal;HPM_P1;HPM_P2
2023/12/12 00:02:06;;;;;;;3.90;1.90;;;6.80;99.90;;;;;;6159034;23;20226;-86
2023/12/12 00:04:31;;;;;;;4.13;1.87;;;6.80;99.90;;;;;;6133130;23;20186;-86
2023/12/12 00:06:57;;;;;;;7.43;1.90;;;6.80;99.90;;;;;;6159050;23;20566;-87
2023/12/12 00:09:23;;;;;;;4.30;1.67;;;6.70;99.90;;;;;;6157354;23;20178;-86
2023/12/12 00:11:55;;;;;;;7.83;1.80;;;6.70;99.90;;;;;;6157615;23;20167;-86
2023/12/12 00:14:21;;;;;;;6.97;2.00;;;6.70;99.90;;;;;;6159346;23;20140;-86
2023/12/12 00:16:47;;;;;;;10.33;1.93;;;6.70;99.90;;;;;;6158898;23;20523;-86
2023/12/12 00:19:13;;;;;;;7.23;2.20;;;6.70;99.90;;;;;;6159068;23;20627;-87
2023/12/12 00:21:38;;;;;;;11.90;2.20;;;6.70;99.90;;;;;;6158731;23;20197;-87
2023/12/12 00:24:04;;;;;;;6.63;2.13;;;6.70;99.90;;;;;;6158918;23;20140;-86
2023/12/12 00:26:30;;;;;;;5.93;1.90;;;6.70;99.90;;;;;;6158870;23;20151;-86
2023/12/12 00:28:55;;;;;;;5.80;1.80;;;6.70;99.90;;;;;;6156971;23;20492;-85
2023/12/12 00:31:22;;;;;;;8.20;2.23;;;6.60;99.90;;;;;;6158485;23;20245;-87
2023/12/12 00:33:48;;;;;;;6.73;2.70;;;6.60;99.90;;;;;;6132709;23;20151;-86
2023/12/12 00:36:14;;;;;;;8.53;2.67;;;6.60;99.90;;;;;;6156845;23;20167;-86
2023/12/12 00:38:40;;;;;;;4.50;2.10;;;6.50;99.90;;;;;;6158737;23;20543;-87
2023/12/12 00:41:06;;;;;;;5.43;2.27;;;6.50;99.90;;;;;;6158712;23;20209;-86
2023/12/12 00:43:31;;;;;;;9.07;2.80;;;6.50;99.90;;;;;;6156915;23;20213;-85
2023/12/12 00:45:57;;;;;;;7.33;2.27;;;6.50;99.90;;;;;;6158588;23;20155;-85
2023/12/12 00:48:23;;;;;;;8.23;2.33;;;6.40;99.90;;;;;;6157150;23;20189;-86
2023/12/12 00:50:49;;;;;;;7.73;2.50;;;6.40;99.90;;;;;;6158199;23;20198;-87
2023/12/12 00:53:22;;;;;;;10.83;2.50;;;6.40;99.90;;;;;;6157045;23;20159;-86
2023/12/12 00:55:47;;;;;;;7.93;2.53;;;6.40;99.90;;;;;;6157092;23;20159;-85
2023/12/12 00:58:13;;;;;;;7.27;2.53;;;6.40;99.90;;;;;;6132261;23;20210;-86
2023/12/12 01:00:39;;;;;;;5.70;2.60;;;6.40;99.90;;;;;;6132511;23;20182;-87
2023/12/12 01:03:06;;;;;;;8.07;2.80;;;6.40;99.90;;;;;;6157195;23;20159;-86
2023/12/12 01:05:31;;;;;;;6.50;3.40;;;6.40;99.90;;;;;;6157895;23;20162;-85
2023/12/12 01:07:57;;;;;;;10.63;2.80;;;6.50;99.90;;;;;;6157201;23;20571;-85
2023/12/12 01:10:23;;;;;;;4.97;2.77;;;6.40;99.90;;;;;;6158427;23;20186;-85
2023/12/12 01:12:49;;;;;;;10.60;3.40;;;6.50;99.90;;;;;;6157810;23;20155;-86
2023/12/12 01:15:15;;;;;;;9.30;3.10;;;6.50;99.90;;;;;;6132509;23;20163;-86
2023/12/12 01:17:41;;;;;;;8.07;3.20;;;6.40;99.90;;;;;;6157041;23;20158;-86
2023/12/12 01:20:08;;;;;;;12.07;3.23;;;6.50;99.90;;;;;;6157867;23;20155;-86
2023/12/12 01:25:07;;;;;;;10.33;3.20;;;6.50;99.90;;;;;;6338155;22;20171;-89
2023/12/12 01:27:33;;;;;;;8.93;2.60;;;6.50;99.90;;;;;;6340845;22;20147;-83
2023/12/12 01:29:59;;;;;;;7.17;2.73;;;6.50;99.90;;;;;;6313141;22;20219;-83
2023/12/12 01:32:25;;;;;;;10.50;2.73;;;6.50;99.90;;;;;;6313220;22;20201;-83
2023/12/12 01:34:51;;;;;;;8.40;3.10;;;6.50;99.90;;;;;;6340951;22;20151;-88
2023/12/12 01:37:17;;;;;;;11.63;2.70;;;6.50;99.90;;;;;;6313013;22;20497;-83
2023/12/12 01:39:42;;;;;;;8.60;2.53;;;6.50;99.90;;;;;;6311926;22;20574;-82
2023/12/12 01:42:08;;;;;;;6.63;2.23;;;6.50;99.90;;;;;;6340076;22;20266;-84
2023/12/12 01:44:34;;;;;;;10.97;3.03;;;6.50;99.90;;;;;;6313159;22;20155;-83
2023/12/12 01:47:00;;;;;;;6.87;2.43;;;6.50;99.90;;;;;;6340743;22;20185;-83
2023/12/12 01:49:26;;;;;;;9.23;2.53;;;6.50;99.90;;;;;;6312543;22;20183;-86
2023/12/12 01:51:52;;;;;;;8.97;2.23;;;6.50;99.90;;;;;;6312835;22;20197;-84
2023/12/12 01:54:18;;;;;;;7.43;2.00;;;6.50;99.90;;;;;;6311962;22;20155;-83
2023/12/12 01:56:48;;;;;;;6.87;2.00;;;6.50;99.90;;;;;;6312970;22;20152;-83
2023/12/12 01:59:15;;;;;;;12.77;2.10;;;6.50;99.90;;;;;;6312826;22;20456;-83
2023/12/12 02:01:41;;;;;;;6.20;1.90;;;6.50;99.90;;;;;;6312986;22;20160;-85
2023/12/12 02:04:07;;;;;;;12.47;2.30;;;6.50;99.90;;;;;;6313028;22;20257;-83
2023/12/12 02:06:33;;;;;;;4.83;1.90;;;6.50;99.90;;;;;;6312543;22;20161;-83
2023/12/12 02:08:59;;;;;;;7.77;1.70;;;6.50;99.90;;;;;;6312815;22;20190;-83
2023/12/12 02:11:25;;;;;;;6.70;1.73;;;6.50;99.90;;;;;;6312896;22;20187;-83
2023/12/12 02:13:50;;;;;;;5.17;1.50;;;6.50;99.90;;;;;;6312967;22;20178;-85
2023/12/12 02:16:17;;;;;;;8.33;1.93;;;6.50;99.90;;;;;;6340243;22;20147;-85
2023/12/12 02:18:43;;;;;;;10.37;2.20;;;6.40;99.90;;;;;;6339950;22;20226;-84
2023/12/12 02:21:08;;;;;;;5.70;1.70;;;6.40;99.90;;;;;;6340455;22;20608;-83
2023/12/12 02:23:34;;;;;;;12.07;2.10;;;6.40;99.90;;;;;;6300295;22;20202;-84
2023/12/12 02:26:02;;;;;;;4.57;1.93;;;6.40;99.90;;;;;;6308477;22;20453;-83
2023/12/12 02:28:29;;;;;;;8.77;2.00;;;6.40;99.90;;;;;;6281860;22;20144;-83
2023/12/12 02:30:55;;;;;;;6.97;1.80;;;6.40;99.90;;;;;;6281548;22;20241;-83
2023/12/12 02:33:21;;;;;;;7.87;1.87;;;6.40;99.90;;;;;;6311344;22;20183;-86
2023/12/12 02:35:47;;;;;;;7.60;1.73;;;6.40;99.90;;;;;;6283629;22;20160;-84
2023/12/12 02:38:13;;;;;;;6.73;1.80;;;6.40;99.90;;;;;;6310709;22;20140;-83
2023/12/12 02:40:39;;;;;;;7.43;1.80;;;6.40;99.90;;;;;;6311278;22;20152;-82
2023/12/12 02:43:05;;;;;;;7.50;1.80;;;6.40;99.90;;;;;;6283995;22;20180;-86
2023/12/12 02:45:31;;;;;;;5.17;1.60;;;6.40;99.90;;;;;;6283602;22;20446;-89
2023/12/12 02:47:57;;;;;;;6.03;1.90;;;6.30;99.90;;;;;;6283996;22;20179;-84
2023/12/12 02:50:22;;;;;;;12.90;2.40;;;6.30;99.90;;;;;;6310710;22;20585;-86
2023/12/12 02:52:48;;;;;;;11.03;2.33;;;6.40;99.90;;;;;;6311197;22;20150;-83
2023/12/12 02:55:14;;;;;;;13.23;2.10;;;6.30;99.90;;;;;;6283518;22;20210;-84
2023/12/12 02:57:40;;;;;;;8.53;1.93;;;6.30;99.90;;;;;;6283879;22;20151;-85
2023/12/12 03:00:06;;;;;;;10.57;1.80;;;6.30;99.90;;;;;;6283709;22;20160;-85
2023/12/12 03:02:35;;;;;;;3.83;1.50;;;6.30;99.90;;;;;;6283728;22;20593;-84
2023/12/12 03:05:01;;;;;;;4.70;1.70;;;6.30;99.90;;;;;;6283602;22;20207;-89
2023/12/12 03:07:27;;;;;;;10.50;1.80;;;6.30;99.90;;;;;;6283518;22;20150;-84
2023/12/12 03:09:53;;;;;;;11.07;2.10;;;6.30;99.90;;;;;;6282466;22;20652;-84
2023/12/12 03:12:19;;;;;;;5.90;1.97;;;6.30;99.90;;;;;;6310994;22;20152;-84
2023/12/12 03:14:44;;;;;;;9.60;2.13;;;6.30;99.90;;;;;;6283761;22;20201;-84
2023/12/12 03:17:10;;;;;;;6.83;2.13;;;6.30;99.90;;;;;;6310688;22;20172;-83
2023/12/12 03:19:36;;;;;;;8.30;2.33;;;6.30;99.90;;;;;;6283580;22;20159;-84
2023/12/12 03:22:02;;;;;;;8.53;2.70;;;6.30;99.90;;;;;;6310908;22;20148;-83
2023/12/12 03:24:28;;;;;;;10.67;2.40;;;6.30;99.90;;;;;;6306081;22;20507;-84
2023/12/12 03:26:55;;;;;;;6.53;2.17;;;6.30;99.90;;;;;;6341997;22;20151;-87
2023/12/12 03:29:20;;;;;;;10.07;1.90;;;6.20;99.90;;;;;;6341963;22;20178;-87
2023/12/12 03:31:46;;;;;;;7.13;2.20;;;6.20;99.90;;;;;;6314723;22;20178;-89
2023/12/12 03:34:12;;;;;;;11.23;2.17;;;6.20;99.90;;;;;;6341855;22;20151;-86
2023/12/12 03:36:45;;;;;;;9.67;2.40;;;6.20;99.90;;;;;;6314385;22;20185;-83
2023/12/12 03:39:11;;;;;;;4.33;1.90;;;6.30;99.90;;;;;;6314120;22;20147;-88
2023/12/12 03:41:38;;;;;;;8.63;2.00;;;6.20;99.90;;;;;;6314497;22;20159;-87
2023/12/12 03:44:04;;;;;;;11.87;1.70;;;6.20;99.90;;;;;;6314535;22;20151;-85
2023/12/12 03:46:31;;;;;;;9.73;2.00;;;6.20;99.90;;;;;;6314424;22;20166;-86
2023/12/12 03:48:56;;;;;;;6.23;2.63;;;6.20;99.90;;;;;;6341894;22;20198;-87
2023/12/12 03:51:23;;;;;;;8.03;2.30;;;6.20;99.90;;;;;;6342006;22;20448;-83
2023/12/12 03:53:48;;;;;;;5.00;1.90;;;6.20;99.90;;;;;;6313341;22;20151;-88
2023/12/12 03:56:14;;;;;;;13.60;2.20;;;6.20;99.90;;;;;;6313411;22;20159;-84
2023/12/12 03:58:40;;;;;;;6.20;1.83;;;6.20;99.90;;;;;;6313776;22;20258;-83
2023/12/12 04:01:06;;;;;;;7.30;2.33;;;6.20;99.90;;;;;;6341779;22;20220;-83
2023/12/12 04:03:32;;;;;;;8.87;2.53;;;6.20;99.90;;;;;;6341610;22;20148;-83
2023/12/12 04:06:02;;;;;;;5.53;1.97;;;6.10;99.90;;;;;;6312587;22;20444;-83
2023/12/12 04:08:28;;;;;;;3.60;1.73;;;6.10;99.90;;;;;;6313778;22;20159;-83
2023/12/12 04:10:54;;;;;;;5.80;2.00;;;6.20;99.90;;;;;;6341445;22;20183;-83
2023/12/12 04:13:19;;;;;;;9.10;2.00;;;6.20;99.90;;;;;;6313909;22;20151;-83
2023/12/12 04:15:45;;;;;;;5.47;1.70;;;6.10;99.90;;;;;;6341284;22;20152;-82
2023/12/12 04:18:11;;;;;;;5.33;1.67;;;6.10;99.90;;;;;;6313784;22;20155;-87
2023/12/12 04:20:36;;;;;;;5.30;1.70;;;6.10;99.90;;;;;;6313553;22;20239;-85
2023/12/12 04:23:02;;;;;;;6.90;1.83;;;6.20;99.90;;;;;;6341151;22;20266;-83
2023/12/12 04:25:28;;;;;;;10.27;1.90;;;6.10;99.90;;;;;;6313530;22;20594;-83
2023/12/12 04:27:54;;;;;;;6.23;1.53;;;6.20;99.90;;;;;;6341619;22;20194;-84
2023/12/12 04:30:19;;;;;;;7.43;1.80;;;6.10;99.90;;;;;;6340799;22;20489;-83
2023/12/12 04:32:45;;;;;;;11.20;1.73;;;6.20;99.90;;;;;;6341306;22;20216;-85
2023/12/12 04:35:11;;;;;;;7.63;1.73;;;6.10;99.90;;;;;;6341273;22;20148;-85
2023/12/12 04:37:37;;;;;;;6.97;1.37;;;6.10;99.90;;;;;;6313761;22;20448;-85
2023/12/12 04:40:04;;;;;;;4.20;1.40;;;6.10;99.90;;;;;;6313490;22;20156;-83
2023/12/12 04:42:29;;;;;;;6.07;1.77;;;6.00;99.90;;;;;;6341401;22;20151;-83
2023/12/12 04:44:55;;;;;;;9.00;1.87;;;6.00;99.90;;;;;;6313757;22;20472;-82
2023/12/12 04:47:21;;;;;;;4.20;1.73;;;6.00;99.90;;;;;;6313655;22;20550;-85
2023/12/12 04:49:47;;;;;;;4.87;1.70;;;6.00;99.90;;;;;;6341562;22;20175;-91
2023/12/12 04:52:13;;;;;;;7.83;1.63;;;6.00;99.90;;;;;;6341761;22;20144;-82
2023/12/12 04:54:39;;;;;;;6.63;1.70;;;6.00;99.90;;;;;;6313586;22;20216;-91
2023/12/12 04:57:06;;;;;;;7.93;1.57;;;5.90;99.90;;;;;;6341443;22;20559;-90
2023/12/12 04:59:31;;;;;;;10.10;1.90;;;5.90;99.90;;;;;;6314340;22;20234;-89
2023/12/12 05:01:57;;;;;;;7.00;1.83;;;5.90;99.90;;;;;;6314362;22;20174;-90
2023/12/12 05:04:23;;;;;;;9.53;2.90;;;5.90;99.90;;;;;;6341674;22;20151;-87
2023/12/12 05:06:56;;;;;;;5.93;1.90;;;5.80;99.90;;;;;;6341674;22;20179;-92
2023/12/12 05:09:21;;;;;;;8.73;2.37;;;5.80;99.90;;;;;;6313240;22;20191;-92
2023/12/12 05:11:48;;;;;;;9.13;2.40;;;5.70;99.90;;;;;;6341526;22;20460;-90
2023/12/12 05:14:14;;;;;;;8.10;2.10;;;5.70;99.90;;;;;;6340861;22;20157;-92
2023/12/12 05:16:47;;;;;;;4.80;2.10;;;5.60;99.90;;;;;;6314063;22;20174;-91
2023/12/12 05:19:14;;;;;;;4.13;2.37;;;5.50;99.90;;;;;;6341817;22;20163;-92
2023/12/12 05:21:39;;;;;;;5.67;2.00;;;5.50;99.90;;;;;;6314585;22;20245;-89
2023/12/12 05:24:06;;;;;;;9.73;2.60;;;5.40;99.90;;;;;;6315315;22;20203;-90
2023/12/12 05:26:33;;;;;;;6.47;2.87;;;5.30;99.90;;;;;;6342499;22;20150;-91
2023/12/12 05:28:58;;;;;;;9.47;2.60;;;5.20;99.90;;;;;;6341398;22;20174;-82
2023/12/12 05:31:24;;;;;;;7.53;2.90;;;5.20;99.90;;;;;;6341270;22;20566;-90
2023/12/12 05:33:50;;;;;;;7.40;2.73;;;5.20;99.90;;;;;;6341760;22;20199;-83
2023/12/12 05:36:16;;;;;;;11.60;3.20;;;5.10;99.90;;;;;;6341305;22;20174;-88
2023/12/12 05:38:42;;;;;;;11.90;3.50;;;5.10;99.90;;;;;;6312292;22;20427;-84
2023/12/12 05:41:07;;;;;;;6.17;3.50;;;5.00;99.90;;;;;;6340354;22;20174;-83
2023/12/12 05:43:33;;;;;;;7.03;3.10;;;5.00;99.90;;;;;;6312817;22;20242;-83
2023/12/12 05:45:59;;;;;;;7.83;3.57;;;5.00;99.90;;;;;;6312695;22;20197;-83
2023/12/12 05:48:25;;;;;;;8.27;3.50;;;4.90;99.90;;;;;;6340805;22;20210;-83
2023/12/12 05:50:51;;;;;;;7.00;3.50;;;4.90;99.90;;;;;;6313231;22;20217;-88
2023/12/12 05:53:18;;;;;;;9.97;4.17;;;4.80;99.90;;;;;;6313219;22;20194;-83
2023/12/12 05:55:44;;;;;;;12.10;4.10;;;4.80;99.90;;;;;;6340124;22;20154;-82
2023/12/12 05:58:09;;;;;;;11.30;3.87;;;4.70;99.90;;;;;;6339815;22;20191;-83
2023/12/12 06:00:35;;;;;;;11.10;3.60;;;4.70;99.90;;;;;;6340588;22;20229;-84
2023/12/12 06:03:02;;;;;;;5.43;3.20;;;4.70;99.90;;;;;;6313220;22;20178;-88
2023/12/12 06:05:27;;;;;;;6.63;3.20;;;4.60;99.90;;;;;;6340506;22;20239;-82
2023/12/12 06:07:53;;;;;;;7.13;3.43;;;4.60;99.90;;;;;;6339587;22;20592;-82
2023/12/12 06:10:19;;;;;;;9.07;3.07;;;4.60;99.90;;;;;;6338542;22;20183;-83
2023/12/12 06:12:45;;;;;;;7.63;3.07;;;4.60;99.90;;;;;;6311521;22;20197;-83
2023/12/12 06:15:11;;;;;;;13.43;3.33;;;4.50;99.90;;;;;;6338829;22;20151;-85
2023/12/12 06:17:40;;;;;;;9.63;3.87;;;4.50;99.90;;;;;;6338476;22;20558;-83
2023/12/12 06:20:07;;;;;;;7.33;3.30;;;4.50;99.90;;;;;;6311174;22;20147;-83
2023/12/12 06:22:34;;;;;;;10.33;3.60;;;4.40;99.90;;;;;;6339482;22;20147;-83
2023/12/12 06:24:59;;;;;;;9.30;4.03;;;4.40;99.90;;;;;;6282525;22;20365;-83
2023/12/12 06:27:25;;;;;;;9.67;3.33;;;4.40;99.90;;;;;;6308837;22;20225;-83
2023/12/12 06:29:52;;;;;;;11.80;4.03;;;4.40;99.90;;;;;;6281766;22;20590;-87
2023/12/12 06:32:17;;;;;;;8.40;3.50;;;4.40;99.90;;;;;;6309142;22;20143;-83
2023/12/12 06:34:43;;;;;;;11.73;3.70;;;4.30;99.90;;;;;;6281886;22;20190;-83
2023/12/12 06:37:10;;;;;;;13.50;3.63;;;4.30;99.90;;;;;;6281694;22;20171;-83
2023/12/12 06:39:36;;;;;;;8.97;3.60;;;4.30;99.90;;;;;;6308418;22;20132;-83
2023/12/12 06:42:03;;;;;;;9.10;3.30;;;4.30;99.90;;;;;;6308982;22;20144;-84
2023/12/12 06:44:29;;;;;;;14.93;3.50;;;4.30;99.90;;;;;;6309032;22;20133;-84
2023/12/12 06:46:54;;;;;;;8.87;3.37;;;4.30;99.90;;;;;;6281282;22;20159;-84
2023/12/12 06:49:20;;;;;;;8.47;2.80;;;4.30;99.90;;;;;;6308879;22;20233;-83
2023/12/12 06:51:46;;;;;;;7.00;3.53;;;4.30;99.90;;;;;;6281633;22;20158;-86
2023/12/12 06:54:12;;;;;;;9.60;3.53;;;4.30;99.90;;;;;;6281055;22;20151;-84
2023/12/12 06:56:37;;;;;;;5.60;3.23;;;4.30;99.90;;;;;;6281096;22;20160;-83
2023/12/12 06:59:05;;;;;;;8.83;3.00;;;4.20;99.90;;;;;;6281526;22;20156;-83
2023/12/12 07:01:31;;;;;;;4.80;3.00;;;4.20;99.90;;;;;;6281635;22;20160;-83
2023/12/12 07:03:57;;;;;;;12.83;3.47;;;4.20;99.90;;;;;;6281683;22;20274;-83
2023/12/12 07:06:23;;;;;;;11.00;3.10;;;4.20;99.90;;;;;;6308753;22;20155;-84
2023/12/12 07:08:49;;;;;;;7.77;2.87;;;4.20;99.90;;;;;;6308408;22;20200;-84
2023/12/12 07:11:16;;;;;;;8.97;3.10;;;4.10;99.90;;;;;;6281515;22;20167;-83
2023/12/12 07:13:42;;;;;;;6.63;3.00;;;4.10;99.90;;;;;;6308979;22;20197;-84
2023/12/12 07:16:11;;;;;;;13.17;3.50;;;4.10;99.90;;;;;;6281195;22;20186;-84
2023/12/12 07:18:40;;;;;;;12.37;3.20;;;4.10;99.90;;;;;;6310887;22;20154;-84
2023/12/12 07:21:06;;;;;;;8.70;3.23;;;4.10;99.90;;;;;;6283421;22;20491;-84
2023/12/12 07:23:32;;;;;;;9.77;3.30;;;4.10;99.90;;;;;;6286107;22;20497;-83
2023/12/12 07:25:59;;;;;;;5.23;2.63;;;4.10;99.90;;;;;;6282971;22;20230;-84
2023/12/12 07:28:25;;;;;;;7.33;2.70;;;4.10;99.90;;;;;;6310565;22;20520;-84
2023/12/12 07:30:53;;;;;;;6.03;2.77;;;4.00;99.90;;;;;;6283367;22;20199;-85
2023/12/12 07:33:19;;;;;;;10.87;3.50;;;4.00;99.90;;;;;;6283279;22;20476;-83
2023/12/12 07:35:46;;;;;;;5.93;2.93;;;4.00;99.90;;;;;;6283109;22;20182;-83
2023/12/12 07:38:11;;;;;;;6.17;2.90;;;4.00;99.90;;;;;;6283088;22;20526;-83
2023/12/12 07:40:40;;;;;;;12.10;2.93;;;4.10;99.90;;;;;;6283168;22;20152;-87
2023/12/12 07:43:06;;;;;;;5.63;2.93;;;4.00;99.90;;;;;;6283252;22;20164;-84
2023/12/12 07:45:32;;;;;;;9.03;3.13;;;4.00;99.90;;;;;;6310597;22;20227;-83
2023/12/12 07:47:58;;;;;;;6.83;3.03;;;4.00;99.90;;;;;;6310289;22;20155;-84
2023/12/12 07:50:24;;;;;;;8.73;3.30;;;4.00;99.90;;;;;;6283028;22;20187;-83
2023/12/12 07:52:50;;;;;;;5.57;2.93;;;4.00;99.90;;;;;;6282954;22;20223;-84
2023/12/12 07:55:15;;;;;;;4.40;2.80;;;4.00;99.90;;;;;;6310061;22;20151;-84
2023/12/12 07:57:42;;;;;;;5.33;3.00;;;3.90;99.90;;;;;;6310521;22;20559;-84
2023/12/12 08:00:10;;;;;;;6.23;3.20;;;4.00;99.90;;;;;;6283103;22;20155;-84
2023/12/12 08:02:36;;;;;;;8.07;3.40;;;4.00;99.90;;;;;;6283190;22;20464;-84
2023/12/12 08:05:03;;;;;;;9.63;3.30;;;4.00;99.90;;;;;;6281703;22;20578;-84
2023/12/12 08:07:29;;;;;;;6.40;2.93;;;4.10;99.90;;;;;;6282832;22;20253;-85
2023/12/12 08:09:55;;;;;;;8.07;3.60;;;4.10;99.90;;;;;;6282974;22;20637;-84
2023/12/12 08:12:23;;;;;;;10.90;3.90;;;4.20;99.90;;;;;;6283156;22;20156;-86
2023/12/12 08:14:49;;;;;;;7.37;2.93;;;4.20;99.90;;;;;;6282984;22;20167;-84
2023/12/12 08:17:15;;;;;;;6.20;3.20;;;4.30;99.90;;;;;;6282582;22;20625;-84
2023/12/12 08:19:41;;;;;;;6.80;3.33;;;4.30;99.90;;;;;;6282568;22;20164;-84
2023/12/12 08:22:07;;;;;;;9.47;3.50;;;4.40;99.90;;;;;;6310224;22;20136;-84
2023/12/12 08:24:33;;;;;;;7.80;3.27;;;4.40;99.90;;;;;;6302875;22;20202;-84
2023/12/12 08:26:59;;;;;;;6.50;3.47;;;4.40;99.90;;;;;;6313825;22;20291;-84
2023/12/12 08:29:25;;;;;;;7.13;3.17;;;4.50;99.90;;;;;;6340663;22;20178;-84
2023/12/12 08:31:51;;;;;;;10.17;3.70;;;4.50;99.90;;;;;;6313806;22;20533;-84
2023/12/12 08:34:17;;;;;;;13.00;3.70;;;4.60;99.90;;;;;;6313506;22;20179;-83
2023/12/12 08:36:42;;;;;;;8.80;3.20;;;4.50;99.90;;;;;;6341198;22;20589;-85
2023/12/12 08:39:08;;;;;;;8.67;4.10;;;4.60;99.90;;;;;;6313498;22;20159;-85
2023/12/12 08:41:37;;;;;;;8.20;3.80;;;4.60;99.90;;;;;;6341742;22;20567;-84
2023/12/12 08:44:03;;;;;;;10.93;4.03;;;4.60;99.90;;;;;;6341381;22;20151;-83
2023/12/12 08:46:29;;;;;;;7.13;4.00;;;4.60;99.90;;;;;;6313027;22;20220;-83
2023/12/12 08:48:56;;;;;;;11.80;4.33;;;4.60;99.90;;;;;;6312667;22;20155;-83
2023/12/12 08:51:30;;;;;;;9.77;4.77;;;4.70;99.90;;;;;;6340948;22;20181;-85
2023/12/12 08:53:58;;;;;;;6.80;3.93;;;4.70;99.90;;;;;;6313918;22;20155;-83
2023/12/12 08:56:25;;;;;;;12.90;5.43;;;4.70;99.90;;;;;;6313007;22;20166;-83
2023/12/12 08:58:51;;;;;;;7.50;4.40;;;4.80;99.90;;;;;;6341401;22;20148;-83
2023/12/12 09:01:18;;;;;;;7.33;4.60;;;4.80;99.90;;;;;;6313317;22;20147;-83
2023/12/12 09:03:44;;;;;;;7.03;4.77;;;4.80;99.90;;;;;;6313534;22;20159;-84
2023/12/12 09:06:10;;;;;;;8.10;4.27;;;4.90;99.90;;;;;;6341036;22;20230;-84
2023/12/12 09:08:36;;;;;;;8.63;4.57;;;4.90;99.90;;;;;;6313511;22;20182;-83
2023/12/12 09:11:02;;;;;;;8.33;5.00;;;5.00;99.90;;;;;;6340787;22;20175;-84
2023/12/12 09:13:28;;;;;;;9.57;4.30;;;5.10;99.90;;;;;;6313747;22;20203;-89
2023/12/12 09:15:57;;;;;;;11.17;4.60;;;5.10;99.90;;;;;;6313293;22;20190;-83
2023/12/12 09:18:22;;;;;;;10.73;4.67;;;5.20;99.90;;;;;;6313261;22;20151;-84
2023/12/12 09:20:48;;;;;;;8.17;4.40;;;5.30;99.90;;;;;;6341170;22;20144;-84
2023/12/12 09:23:15;;;;;;;9.83;4.70;;;5.30;99.90;;;;;;6340732;22;20460;-83
2023/12/12 09:25:41;;;;;;;13.43;4.73;;;5.40;99.90;;;;;;6312972;22;20163;-83
2023/12/12 09:28:06;;;;;;;12.70;4.53;;;5.40;99.90;;;;;;6340874;22;20600;-88
2023/12/12 09:30:32;;;;;;;10.77;4.90;;;5.50;99.90;;;;;;6340853;22;20487;-84
2023/12/12 09:32:58;;;;;;;8.03;5.17;;;5.50;99.90;;;;;;6341128;22;20149;-83
2023/12/12 09:35:24;;;;;;;10.83;5.20;;;5.60;99.90;;;;;;6313112;22;20167;-83
2023/12/12 09:37:50;;;;;;;8.03;4.70;;;5.60;99.90;;;;;;6313203;22;20437;-83
2023/12/12 09:40:17;;;;;;;10.73;4.63;;;5.70;99.90;;;;;;6340445;22;20197;-88
2023/12/12 09:42:49;;;;;;;11.47;5.10;;;5.70;99.90;;;;;;6313279;22;20581;-83
2023/12/12 09:45:16;;;;;;;10.00;5.47;;;5.80;99.90;;;;;;6313512;22;20204;-85
2023/12/12 09:47:43;;;;;;;8.67;4.83;;;5.80;99.90;;;;;;6340882;22;20456;-92
2023/12/12 09:50:12;;;;;;;8.00;5.07;;;5.80;99.90;;;;;;6313009;22;20191;-83
2023/12/12 09:52:39;;;;;;;8.67;4.90;;;5.90;99.90;;;;;;6313314;22;20151;-84
2023/12/12 09:55:06;;;;;;;16.17;5.23;;;5.90;99.90;;;;;;6340496;22;20222;-84
2023/12/12 09:57:35;;;;;;;10.43;5.17;;;5.90;99.90;;;;;;6340461;22;20230;-90
2023/12/12 10:00:04;;;;;;;6.83;4.63;;;5.90;99.90;;;;;;6312992;22;20158;-83
2023/12/12 10:02:39;;;;;;;9.47;4.87;;;6.00;99.90;;;;;;6340905;22;20432;-84
2023/12/12 10:05:09;;;;;;;12.37;4.97;;;6.00;99.90;;;;;;6313179;22;20147;-93
2023/12/12 10:07:36;;;;;;;11.63;5.40;;;6.00;99.90;;;;;;6341250;22;20155;-93
2023/12/12 10:10:07;;;;;;;10.53;5.40;;;6.00;99.90;;;;;;6339888;22;20214;-91
2023/12/12 10:12:33;;;;;;;10.60;5.80;;;6.10;99.90;;;;;;6311527;22;20165;-88
2023/12/12 10:14:58;;;;;;;11.03;5.93;;;6.10;99.90;;;;;;6312509;22;20223;-91
2023/12/12 10:17:25;;;;;;;8.37;5.73;;;6.10;99.90;;;;;;6311949;22;20159;-84
2023/12/12 10:20:05;;;;;;;10.63;5.87;;;6.10;99.90;;;;;;6311858;22;20655;-84
2023/12/12 10:22:31;;;;;;;9.27;5.47;;;6.10;99.90;;;;;;6340059;22;20139;-91
2023/12/12 10:25:10;;;;;;;11.40;6.30;;;6.10;99.90;;;;;;6332682;22;20308;-82
2023/12/12 10:27:39;;;;;;;9.60;5.73;;;6.10;99.90;;;;;;6311817;22;20154;-82
2023/12/12 10:30:06;;;;;;;7.23;5.47;;;6.20;99.90;;;;;;6339203;22;20183;-82
2023/12/12 10:32:35;;;;;;;10.20;6.27;;;6.20;99.90;;;;;;6312166;22;20155;-82
2023/12/12 10:35:01;;;;;;;12.02;6.13;;;6.30;99.90;;;;;;6311894;22;20585;-82
2023/12/12 10:37:27;;;;;;;8.73;5.80;;;6.40;99.90;;;;;;6311951;22;20238;-83
2023/12/12 10:39:53;;;;;;;10.03;6.03;;;6.50;99.90;;;;;;6311998;22;20151;-82
2023/12/12 10:42:19;;;;;;;8.93;6.10;;;6.50;99.90;;;;;;6311554;22;20608;-83
2023/12/12 10:44:47;;;;;;;7.40;5.53;;;6.60;99.90;;;;;;6338827;22;20497;-83
2023/12/12 10:47:14;;;;;;;9.77;5.77;;;6.70;99.90;;;;;;6309225;22;20238;-83
2023/12/12 10:49:43;;;;;;;11.30;6.13;;;6.70;99.90;;;;;;6338671;22;20213;-82
2023/12/12 10:52:10;;;;;;;8.47;5.97;;;6.80;99.90;;;;;;6338584;22;20146;-82
2023/12/12 10:54:37;;;;;;;8.65;5.95;;;6.70;99.90;;;;;;6312813;22;20166;-82
2023/12/12 10:57:03;;;;;;;10.30;5.87;;;6.80;99.90;;;;;;6313556;22;20569;-82
2023/12/12 10:59:34;;;;;;;9.30;6.13;;;6.80;99.90;;;;;;6341541;22;20561;-83
2023/12/12 11:02:01;;;;;;;9.13;6.20;;;6.80;99.90;;;;;;6341760;22;20162;-82
2023/12/12 11:04:27;;;;;;;8.52;5.90;;;6.80;99.90;;;;;;6314209;22;20208;-82
2023/12/12 11:06:53;;;;;;;7.45;5.60;;;6.80;99.90;;;;;;6314246;22;20151;-82
2023/12/12 11:09:19;;;;;;;9.57;5.47;;;6.90;99.90;;;;;;6340911;22;20232;-83
2023/12/12 11:11:48;;;;;;;7.93;5.73;;;6.90;99.90;;;;;;6341142;22;20178;-83
2023/12/12 11:14:16;;;;;;;7.32;5.60;;;6.80;99.90;;;;;;6314158;22;20226;-83
2023/12/12 11:16:43;;;;;;;7.30;6.00;;;6.90;99.90;;;;;;6313728;22;20155;-82
2023/12/12 11:19:18;;;;;;;10.40;6.03;;;6.90;99.90;;;;;;6341669;22;20158;-82
2023/12/12 11:21:48;;;;;;;7.45;5.45;;;6.90;99.90;;;;;;6341776;22;20425;-82
2023/12/12 11:24:16;;;;;;;11.93;6.67;;;7.00;99.90;;;;;;6314069;22;20205;-83
2023/12/12 11:26:44;;;;;;;13.07;6.60;;;7.00;99.90;;;;;;6341281;22;20208;-82
2023/12/12 11:29:11;;;;;;;14.48;6.80;;;7.00;99.90;;;;;;6341278;22;20211;-82
2023/12/12 11:31:37;;;;;;;10.02;6.88;;;7.00;99.90;;;;;;6313766;22;20235;-82
2023/12/12 11:34:10;;;;;;;11.27;7.07;;;7.00;99.90;;;;;;6341643;22;20504;-82
2023/12/12 11:36:52;;;;;;;13.27;7.90;;;7.00;99.90;;;;;;6313582;22;20155;-83
2023/12/12 11:39:45;;;;;;;11.93;7.43;;;7.00;99.90;;;;;;6313961;22;20162;-83
2023/12/12 11:42:21;;;;;;;9.48;6.50;;;7.00;99.90;;;;;;6341375;22;20454;-83
2023/12/12 11:44:55;;;;;;;10.35;6.82;;;6.90;99.90;;;;;;6341444;22;20151;-83
2023/12/12 11:47:24;;;;;;;11.70;6.93;;;6.90;99.90;;;;;;6313680;22;20159;-83
2023/12/12 11:49:50;;;;;;;11.33;6.53;;;6.90;99.90;;;;;;6341453;22;20183;-82
2023/12/12 11:52:53;;;;;;;10.63;6.88;;;6.90;99.90;;;;;;6313316;22;20152;-83
2023/12/12 11:55:20;;;;;;;10.82;6.82;;;6.90;99.90;;;;;;6160310;23;20162;-83
2023/12/12 11:57:47;;;;;;;8.82;6.63;;;7.00;99.90;;;;;;6312338;22;20209;-83
2023/12/12 12:00:15;;;;;;;10.70;6.63;;;7.00;99.90;;;;;;6313527;22;20488;-82
2023/12/12 12:02:41;;;;;;;9.50;6.70;;;7.00;99.90;;;;;;6340762;22;20140;-82
2023/12/12 12:05:08;;;;;;;14.68;7.20;;;7.00;99.90;;;;;;6341274;22;20544;-83
2023/12/12 12:07:35;;;;;;;7.75;6.10;;;7.00;99.90;;;;;;6287405;22;20288;-82
2023/12/12 12:10:00;;;;;;;8.23;6.55;;;7.00;99.90;;;;;;6313410;22;20183;-83
2023/12/12 12:12:26;;;;;;;12.53;7.37;;;7.00;99.90;;;;;;6341078;22;20139;-83
2023/12/12 12:15:01;;;;;;;13.30;7.22;;;7.00;99.90;;;;;;6341160;22;20441;-82
2023/12/12 12:17:34;;;;;;;13.25;6.95;;;7.00;99.90;;;;;;6340982;22;20135;-82
2023/12/12 12:19:59;;;;;;;8.20;6.10;;;7.00;99.90;;;;;;6313591;22;20151;-82
2023/12/12 12:22:25;;;;;;;9.82;6.00;;;7.00;99.90;;;;;;6313553;22;20159;-83
2023/12/12 12:24:51;;;;;;;10.70;6.65;;;7.10;99.90;;;;;;6340645;22;20483;-83
2023/12/12 12:27:17;;;;;;;9.88;7.05;;;7.10;99.90;;;;;;6313081;22;20216;-82
2023/12/12 12:30:00;;;;;;;10.60;6.53;;;7.10;99.90;;;;;;6340781;22;20257;-82
2023/12/12 12:32:26;;;;;;;9.30;6.05;;;7.20;99.90;;;;;;6340924;22;20194;-82
2023/12/12 12:35:11;;;;;;;10.80;6.20;;;7.20;99.90;;;;;;6340931;22;20143;-83
2023/12/12 12:37:39;;;;;;;9.43;5.63;;;7.20;99.90;;;;;;6341088;22;20615;-83
2023/12/12 12:40:11;;;;;;;7.57;5.53;;;7.30;99.90;;;;;;6312212;22;20162;-83
2023/12/12 12:42:38;;;;;;;11.38;6.25;;;7.40;99.90;;;;;;6313071;22;20148;-83
2023/12/12 12:45:08;;;;;;;10.65;6.55;;;7.50;99.90;;;;;;6341121;22;20216;-83
2023/12/12 12:47:34;;;;;;;13.45;6.22;;;7.60;99.90;;;;;;6340966;22;20154;-84
2023/12/12 12:50:01;;;;;;;9.13;6.05;;;7.60;99.90;;;;;;6313290;22;20523;-83
2023/12/12 12:52:27;;;;;;;11.60;6.40;;;7.70;99.90;;;;;;6313028;22;20180;-83
2023/12/12 12:54:53;;;;;;;13.75;5.68;;;7.70;99.90;;;;;;6340362;22;20538;-83